sensor_id;sensor_type;location;lat;lon;timestamp;pressure;altitude;pressure_sealevel;temperature;humidity
46768;BME280;69007;48.978;18.066;2024-01-15T00:00:19;96097.84;;;-1.16;97.17
46768;BME280;69007;48.978;18.066;2024-01-15T00:02:44;96095.97;;;-1.16;97.24
46768;BME280;69007;48.978;18.066;2024-01-15T00:05:10;96109.09;;;-1.14;97.24
46768;BME280;69007;48.978;18.066;2024-01-15T00:07:35;96074.38;;;-1.26;97.47
46768;BME280;69007;48.978;18.066;2024-01-15T00:10:01;96104.19;;;-1.17;97.02
46768;BME280;69007;48.978;18.066;2024-01-15T00:12:27;96054.44;;;-1.23;97.00
46768;BME280;69007;48.978;18.066;2024-01-15T00:14:53;96074.50;;;-1.09;97.07
46768;BME280;69007;48.978;18.066;2024-01-15T00:17:18;96054.78;;;-1.08;96.17
46768;BME280;69007;48.978;18.066;2024-01-15T00:19:43;96051.78;;;-1.00;95.74
46768;BME280;69007;48.978;18.066;2024-01-15T00:22:09;96052.13;;;-1.08;96.42
46768;BME280;69007;48.978;18.066;2024-01-15T00:24:34;96065.91;;;-1.11;96.94
46768;BME280;69007;48.978;18.066;2024-01-15T00:27:00;96040.03;;;-1.22;97.15
46768;BME280;69007;48.978;18.066;2024-01-15T00:29:25;96035.13;;;-1.25;97.04
46768;BME280;69007;48.978;18.066;2024-01-15T00:31:50;96034.34;;;-1.26;96.58
46768;BME280;69007;48.978;18.066;2024-01-15T00:34:16;96030.06;;;-1.27;96.39
46768;BME280;69007;48.978;18.066;2024-01-15T00:36:41;96070.56;;;-1.18;96.73
46768;BME280;69007;48.978;18.066;2024-01-15T00:39:06;96040.03;;;-1.22;96.53
46768;BME280;69007;48.978;18.066;2024-01-15T00:41:32;96062.56;;;-1.18;96.94
46768;BME280;69007;48.978;18.066;2024-01-15T00:43:57;96066.50;;;-1.09;96.43
46768;BME280;69007;48.978;18.066;2024-01-15T00:46:22;96064.44;;;-1.07;95.87
46768;BME280;69007;48.978;18.066;2024-01-15T00:48:48;96062.69;;;-1.01;95.81
46768;BME280;69007;48.978;18.066;2024-01-15T00:51:13;96019.59;;;-1.28;95.77
46768;BME280;69007;48.978;18.066;2024-01-15T00:53:40;96030.19;;;-1.22;95.69
46768;BME280;69007;48.978;18.066;2024-01-15T00:56:05;96042.84;;;-1.05;95.85
46768;BME280;69007;48.978;18.066;2024-01-15T00:58:31;96024.97;;;-1.17;95.36
46768;BME280;69007;48.978;18.066;2024-01-15T01:00:56;96030.75;;;-1.08;95.13
46768;BME280;69007;48.978;18.066;2024-01-15T01:03:21;96030.97;;;-1.21;96.23
46768;BME280;69007;48.978;18.066;2024-01-15T01:05:50;96024.63;;;-1.20;96.04
46768;BME280;69007;48.978;18.066;2024-01-15T01:08:15;96035.06;;;-1.07;95.81
46768;BME280;69007;48.978;18.066;2024-01-15T01:10:41;96021.59;;;-1.12;95.74
46768;BME280;69007;48.978;18.066;2024-01-15T01:13:08;96032.63;;;-1.08;96.17
46768;BME280;69007;48.978;18.066;2024-01-15T01:15:33;96037.50;;;-1.05;95.85
46768;BME280;69007;48.978;18.066;2024-01-15T01:17:59;95993.16;;;-1.18;96.67
46768;BME280;69007;48.978;18.066;2024-01-15T01:20:24;95993.28;;;-1.13;96.40
46768;BME280;69007;48.978;18.066;2024-01-15T01:22:49;95975.41;;;-1.13;96.01
46768;BME280;69007;48.978;18.066;2024-01-15T01:25:15;96002.91;;;-1.00;95.74
46768;BME280;69007;48.978;18.066;2024-01-15T01:27:41;96000.81;;;-0.98;95.53
46768;BME280;69007;48.978;18.066;2024-01-15T01:30:06;95979.34;;;-1.15;95.44
46768;BME280;69007;48.978;18.066;2024-01-15T01:32:32;95973.56;;;-1.12;95.77
46768;BME280;69007;48.978;18.066;2024-01-15T01:34:57;96006.50;;;-0.95;95.63
46768;BME280;69007;48.978;18.066;2024-01-15T01:37:23;96022.53;;;-0.95;94.82
46768;BME280;69007;48.978;18.066;2024-01-15T01:39:48;96010.69;;;-0.87;94.71
46768;BME280;69007;48.978;18.066;2024-01-15T01:42:14;95968.44;;;-1.02;94.53
46768;BME280;69007;48.978;18.066;2024-01-15T01:44:39;95968.78;;;-0.98;94.63
46768;BME280;69007;48.978;18.066;2024-01-15T01:47:05;95978.53;;;-1.16;96.09
46768;BME280;69007;48.978;18.066;2024-01-15T01:49:31;95980.03;;;-1.32;97.11
46768;BME280;69007;48.978;18.066;2024-01-15T01:52:00;95977.25;;;-1.37;98.31
46768;BME280;69007;48.978;18.066;2024-01-15T01:54:29;95962.03;;;-1.36;97.91
46768;BME280;69007;48.978;18.066;2024-01-15T01:56:55;95984.81;;;-1.34;97.83
46768;BME280;69007;48.978;18.066;2024-01-15T01:59:23;95959.25;;;-1.41;98.53
46768;BME280;69007;48.978;18.066;2024-01-15T02:01:49;95946.94;;;-1.42;98.72
46768;BME280;69007;48.978;18.066;2024-01-15T02:04:16;95953.69;;;-1.40;98.79
46768;BME280;69007;48.978;18.066;2024-01-15T02:06:42;95954.63;;;-1.34;98.88
46768;BME280;69007;48.978;18.066;2024-01-15T02:09:08;95925.72;;;-1.37;98.26
46768;BME280;69007;48.978;18.066;2024-01-15T02:11:35;95918.44;;;-1.30;97.65
46768;BME280;69007;48.978;18.066;2024-01-15T02:14:01;95946.97;;;-1.19;97.73
46768;BME280;69007;48.978;18.066;2024-01-15T02:16:26;95915.31;;;-1.27;98.13
46768;BME280;69007;48.978;18.066;2024-01-15T02:18:51;95931.66;;;-1.23;98.73
46768;BME280;69007;48.978;18.066;2024-01-15T02:21:17;95911.00;;;-1.40;99.57
46768;BME280;69007;48.978;18.066;2024-01-15T02:23:42;95933.84;;;-1.32;99.18
46768;BME280;69007;48.978;18.066;2024-01-15T02:26:08;95922.47;;;-1.27;98.67
46768;BME280;69007;48.978;18.066;2024-01-15T02:28:34;95907.28;;;-1.39;99.86
46768;BME280;69007;48.978;18.066;2024-01-15T02:30:59;95930.72;;;-1.29;100.00
46768;BME280;69007;48.978;18.066;2024-01-15T02:33:25;95888.13;;;-1.36;99.84
46768;BME280;69007;48.978;18.066;2024-01-15T02:35:50;95902.31;;;-1.23;98.96
46768;BME280;69007;48.978;18.066;2024-01-15T02:38:16;95907.84;;;-1.13;98.73
46768;BME280;69007;48.978;18.066;2024-01-15T02:40:42;95884.53;;;-1.30;98.86
46768;BME280;69007;48.978;18.066;2024-01-15T02:43:08;95888.34;;;-1.25;98.38
46768;BME280;69007;48.978;18.066;2024-01-15T02:45:33;95886.53;;;-1.25;98.33
46768;BME280;69007;48.978;18.066;2024-01-15T02:47:59;95863.78;;;-1.39;98.13
46768;BME280;69007;48.978;18.066;2024-01-15T02:50:24;95880.72;;;-1.22;97.26
46768;BME280;69007;48.978;18.066;2024-01-15T02:52:49;95872.97;;;-1.35;98.13
46768;BME280;69007;48.978;18.066;2024-01-15T02:55:15;95896.13;;;-1.24;98.25
46768;BME280;69007;48.978;18.066;2024-01-15T02:57:40;95902.88;;;-1.21;98.55
46768;BME280;69007;48.978;18.066;2024-01-15T03:00:06;95861.78;;;-1.32;98.33
46768;BME280;69007;48.978;18.066;2024-01-15T03:02:33;95877.09;;;-1.16;97.88
46768;BME280;69007;48.978;18.066;2024-01-15T03:04:58;95881.97;;;-1.13;97.44
46768;BME280;69007;48.978;18.066;2024-01-15T03:07:23;95867.59;;;-1.23;97.24
46768;BME280;69007;48.978;18.066;2024-01-15T03:09:49;95878.84;;;-1.21;97.83
46768;BME280;69007;48.978;18.066;2024-01-15T03:12:15;95866.06;;;-1.19;97.71
46768;BME280;69007;48.978;18.066;2024-01-15T03:14:40;95861.56;;;-1.31;98.13
46768;BME280;69007;48.978;18.066;2024-01-15T03:17:06;95848.94;;;-1.47;98.81
46768;BME280;69007;48.978;18.066;2024-01-15T03:19:34;95844.09;;;-1.50;100.00
46768;BME280;69007;48.978;18.066;2024-01-15T03:22:00;95867.03;;;-1.49;100.00
46768;BME280;69007;48.978;18.066;2024-01-15T03:24:26;95831.69;;;-1.68;100.00
46768;BME280;69007;48.978;18.066;2024-01-15T03:26:51;95812.41;;;-1.82;100.00
46768;BME280;69007;48.978;18.066;2024-01-15T03:29:17;95828.97;;;-1.80;100.00
46768;BME280;69007;48.978;18.066;2024-01-15T03:31:42;95819.25;;;-1.86;100.00
46768;BME280;69007;48.978;18.066;2024-01-15T03:34:07;95867.50;;;-1.76;100.00
46768;BME280;69007;48.978;18.066;2024-01-15T03:36:33;95848.00;;;-1.88;100.00
46768;BME280;69007;48.978;18.066;2024-01-15T03:38:58;95846.72;;;-1.74;100.00
46768;BME280;69007;48.978;18.066;2024-01-15T03:41:23;95837.47;;;-1.71;100.00
46768;BME280;69007;48.978;18.066;2024-01-15T03:43:48;95839.69;;;-1.68;100.00
46768;BME280;69007;48.978;18.066;2024-01-15T03:46:14;95830.50;;;-1.72;100.00
46768;BME280;69007;48.978;18.066;2024-01-15T03:48:39;95827.16;;;-1.68;100.00
46768;BME280;69007;48.978;18.066;2024-01-15T03:51:05;95841.28;;;-1.55;100.00
46768;BME280;69007;48.978;18.066;2024-01-15T03:53:30;95813.13;;;-1.63;100.00
46768;BME280;69007;48.978;18.066;2024-01-15T03:55:56;95843.03;;;-1.49;100.00
46768;BME280;69007;48.978;18.066;2024-01-15T03:58:21;95843.72;;;-1.54;100.00
46768;BME280;69007;48.978;18.066;2024-01-15T04:00:47;95845.81;;;-1.56;100.00
46768;BME280;69007;48.978;18.066;2024-01-15T04:03:12;95853.34;;;-1.53;100.00
46768;BME280;69007;48.978;18.066;2024-01-15T04:05:38;95853.81;;;-1.56;100.00
46768;BME280;69007;48.978;18.066;2024-01-15T04:08:04;95858.22;;;-1.61;100.00
46768;BME280;69007;48.978;18.066;2024-01-15T04:10:29;95858.91;;;-1.66;100.00
46768;BME280;69007;48.978;18.066;2024-01-15T04:12:55;95859.16;;;-1.68;100.00
46768;BME280;69007;48.978;18.066;2024-01-15T04:15:21;95827.38;;;-1.81;100.00
46768;BME280;69007;48.978;18.066;2024-01-15T04:17:46;95854.84;;;-1.69;100.00
46768;BME280;69007;48.978;18.066;2024-01-15T04:20:11;95855.22;;;-1.65;100.00
46768;BME280;69007;48.978;18.066;2024-01-15T04:22:37;95837.25;;;-1.81;100.00
46768;BME280;69007;48.978;18.066;2024-01-15T04:25:02;95836.28;;;-1.75;100.00
46768;BME280;69007;48.978;18.066;2024-01-15T04:27:28;95865.88;;;-1.65;100.00
46768;BME280;69007;48.978;18.066;2024-01-15T04:29:53;95851.16;;;-1.68;100.00
46768;BME280;69007;48.978;18.066;2024-01-15T04:32:19;95834.91;;;-1.78;100.00
46768;BME280;69007;48.978;18.066;2024-01-15T04:34:44;95834.69;;;-1.76;100.00
46768;BME280;69007;48.978;18.066;2024-01-15T04:37:10;95861.69;;;-1.73;100.00
46768;BME280;69007;48.978;18.066;2024-01-15T04:39:35;95854.38;;;-1.65;100.00
46768;BME280;69007;48.978;18.066;2024-01-15T04:42:01;95834.53;;;-1.93;100.00
46768;BME280;69007;48.978;18.066;2024-01-15T04:44:26;95819.38;;;-1.93;100.00
46768;BME280;69007;48.978;18.066;2024-01-15T04:46:51;95841.16;;;-1.84;100.00
46768;BME280;69007;48.978;18.066;2024-01-15T04:49:17;95850.81;;;-1.83;100.00
46768;BME280;69007;48.978;18.066;2024-01-15T04:51:42;95807.53;;;-2.09;100.00
46768;BME280;69007;48.978;18.066;2024-01-15T04:54:08;95847.41;;;-1.90;100.00
46768;BME280;69007;48.978;18.066;2024-01-15T04:56:33;95829.66;;;-1.96;100.00
46768;BME280;69007;48.978;18.066;2024-01-15T04:58:58;95830.00;;;-2.16;100.00
46768;BME280;69007;48.978;18.066;2024-01-15T05:01:24;95831.16;;;-2.12;100.00
46768;BME280;69007;48.978;18.066;2024-01-15T05:03:49;95813.34;;;-2.54;100.00
46768;BME280;69007;48.978;18.066;2024-01-15T05:06:15;95828.47;;;-2.36;100.00
46768;BME280;69007;48.978;18.066;2024-01-15T05:08:40;95821.16;;;-2.41;100.00
46768;BME280;69007;48.978;18.066;2024-01-15T05:11:06;95815.88;;;-2.59;100.00
46768;BME280;69007;48.978;18.066;2024-01-15T05:13:31;95821.56;;;-2.55;100.00
46768;BME280;69007;48.978;18.066;2024-01-15T05:15:56;95823.91;;;-2.47;100.00
46768;BME280;69007;48.978;18.066;2024-01-15T05:18:22;95835.56;;;-2.60;100.00
46768;BME280;69007;48.978;18.066;2024-01-15T05:20:47;95805.78;;;-2.69;100.00
46768;BME280;69007;48.978;18.066;2024-01-15T05:23:12;95785.16;;;-2.73;100.00
46768;BME280;69007;48.978;18.066;2024-01-15T05:25:38;95798.66;;;-2.87;100.00
46768;BME280;69007;48.978;18.066;2024-01-15T05:28:04;95795.91;;;-2.80;100.00
46768;BME280;69007;48.978;18.066;2024-01-15T05:30:30;95779.91;;;-2.92;100.00
46768;BME280;69007;48.978;18.066;2024-01-15T05:32:56;95796.63;;;-2.73;100.00
46768;BME280;69007;48.978;18.066;2024-01-15T05:35:22;95771.94;;;-2.80;100.00
46768;BME280;69007;48.978;18.066;2024-01-15T05:37:48;95804.50;;;-2.66;100.00
46768;BME280;69007;48.978;18.066;2024-01-15T05:40:13;95802.91;;;-2.67;100.00
46768;BME280;69007;48.978;18.066;2024-01-15T05:42:39;95790.03;;;-2.70;100.00
46768;BME280;69007;48.978;18.066;2024-01-15T05:45:05;95755.09;;;-2.92;100.00
46768;BME280;69007;48.978;18.066;2024-01-15T05:47:31;95801.50;;;-2.70;100.00
46768;BME280;69007;48.978;18.066;2024-01-15T05:49:57;95804.25;;;-2.76;100.00
46768;BME280;69007;48.978;18.066;2024-01-15T05:52:23;95812.47;;;-2.78;100.00
46768;BME280;69007;48.978;18.066;2024-01-15T05:54:49;95836.81;;;-2.93;100.00
46768;BME280;69007;48.978;18.066;2024-01-15T05:57:14;95817.69;;;-3.02;100.00
46768;BME280;69007;48.978;18.066;2024-01-15T05:59:40;95791.44;;;-2.98;100.00
46768;BME280;69007;48.978;18.066;2024-01-15T06:02:05;95844.88;;;-2.69;100.00
46768;BME280;69007;48.978;18.066;2024-01-15T06:04:31;95809.13;;;-2.73;100.00
46768;BME280;69007;48.978;18.066;2024-01-15T06:06:56;95811.47;;;-2.65;100.00
46768;BME280;69007;48.978;18.066;2024-01-15T06:09:21;95832.00;;;-2.54;100.00
46768;BME280;69007;48.978;18.066;2024-01-15T06:11:47;95802.81;;;-2.61;100.00
46768;BME280;69007;48.978;18.066;2024-01-15T06:14:12;95809.16;;;-2.62;100.00
46768;BME280;69007;48.978;18.066;2024-01-15T06:16:37;95803.59;;;-2.60;100.00
46768;BME280;69007;48.978;18.066;2024-01-15T06:19:03;95831.53;;;-2.51;100.00
46768;BME280;69007;48.978;18.066;2024-01-15T06:21:28;95839.75;;;-2.52;100.00
46768;BME280;69007;48.978;18.066;2024-01-15T06:23:53;95818.78;;;-2.61;100.00
46768;BME280;69007;48.978;18.066;2024-01-15T06:26:22;95815.59;;;-2.69;100.00
46768;BME280;69007;48.978;18.066;2024-01-15T06:28:47;95829.78;;;-2.57;100.00
46768;BME280;69007;48.978;18.066;2024-01-15T06:31:12;95837.09;;;-2.52;100.00
46768;BME280;69007;48.978;18.066;2024-01-15T06:33:38;95839.25;;;-2.61;100.00
46768;BME280;69007;48.978;18.066;2024-01-15T06:36:04;95870.88;;;-2.53;100.00
46768;BME280;69007;48.978;18.066;2024-01-15T06:38:30;95877.41;;;-2.49;100.00
46768;BME280;69007;48.978;18.066;2024-01-15T06:40:55;95875.09;;;-2.45;100.00
46768;BME280;69007;48.978;18.066;2024-01-15T06:43:21;95860.97;;;-2.46;100.00
46768;BME280;69007;48.978;18.066;2024-01-15T06:45:46;95846.91;;;-2.53;100.00
46768;BME280;69007;48.978;18.066;2024-01-15T06:48:12;95859.66;;;-2.85;100.00
46768;BME280;69007;48.978;18.066;2024-01-15T06:50:42;95839.53;;;-2.81;100.00
46768;BME280;69007;48.978;18.066;2024-01-15T06:53:07;95825.44;;;-2.70;100.00
46768;BME280;69007;48.978;18.066;2024-01-15T06:55:33;95853.22;;;-2.47;100.00
46768;BME280;69007;48.978;18.066;2024-01-15T06:57:58;95863.41;;;-2.44;100.00
46768;BME280;69007;48.978;18.066;2024-01-15T07:00:23;95868.66;;;-2.37;100.00
46768;BME280;69007;48.978;18.066;2024-01-15T07:02:49;95855.22;;;-2.31;100.00
46768;BME280;69007;48.978;18.066;2024-01-15T07:05:14;95862.06;;;-2.23;100.00
46768;BME280;69007;48.978;18.066;2024-01-15T07:07:40;95857.66;;;-2.29;100.00
46768;BME280;69007;48.978;18.066;2024-01-15T07:10:06;95870.69;;;-2.09;100.00
46768;BME280;69007;48.978;18.066;2024-01-15T07:12:32;95895.69;;;-1.68;100.00
46768;BME280;69007;48.978;18.066;2024-01-15T07:14:57;95850.31;;;-1.80;100.00
46768;BME280;69007;48.978;18.066;2024-01-15T07:17:23;95889.41;;;-1.74;100.00
46768;BME280;69007;48.978;18.066;2024-01-15T07:19:48;95881.25;;;-1.91;100.00
46768;BME280;69007;48.978;18.066;2024-01-15T07:22:14;95887.63;;;-1.92;100.00
46768;BME280;69007;48.978;18.066;2024-01-15T07:24:43;95908.28;;;-1.87;100.00
46768;BME280;69007;48.978;18.066;2024-01-15T07:27:08;95897.84;;;-1.89;100.00
46768;BME280;69007;48.978;18.066;2024-01-15T07:29:34;95891.47;;;-1.99;100.00
46768;BME280;69007;48.978;18.066;2024-01-15T07:32:03;95879.94;;;-2.12;100.00
46768;BME280;69007;48.978;18.066;2024-01-15T07:34:28;95875.72;;;-2.31;100.00
46768;BME280;69007;48.978;18.066;2024-01-15T07:36:54;95896.00;;;-2.30;100.00
46768;BME280;69007;48.978;18.066;2024-01-15T07:39:19;95876.53;;;-2.31;100.00
46768;BME280;69007;48.978;18.066;2024-01-15T07:41:44;95901.72;;;-2.15;100.00
46768;BME280;69007;48.978;18.066;2024-01-15T07:44:10;95906.25;;;-2.04;100.00
46768;BME280;69007;48.978;18.066;2024-01-15T07:46:35;95888.03;;;-2.18;100.00
46768;BME280;69007;48.978;18.066;2024-01-15T07:49:00;95894.22;;;-2.06;100.00
46768;BME280;69007;48.978;18.066;2024-01-15T07:51:26;95919.03;;;-1.94;100.00
46768;BME280;69007;48.978;18.066;2024-01-15T07:53:55;95929.13;;;-1.96;100.00
46768;BME280;69007;48.978;18.066;2024-01-15T07:56:23;95930.63;;;-1.88;100.00
46768;BME280;69007;48.978;18.066;2024-01-15T07:58:49;95931.94;;;-1.79;100.00
46768;BME280;69007;48.978;18.066;2024-01-15T08:01:14;95938.34;;;-1.68;100.00
46768;BME280;69007;48.978;18.066;2024-01-15T08:03:39;95926.75;;;-1.62;100.00
46768;BME280;69007;48.978;18.066;2024-01-15T08:06:05;95918.03;;;-1.69;100.00
46768;BME280;69007;48.978;18.066;2024-01-15T08:08:31;95960.50;;;-1.56;100.00
46768;BME280;69007;48.978;18.066;2024-01-15T08:10:56;95936.72;;;-1.57;100.00
46768;BME280;69007;48.978;18.066;2024-01-15T08:13:22;95951.91;;;-1.70;100.00
46768;BME280;69007;48.978;18.066;2024-01-15T08:15:47;95921.84;;;-1.77;100.00
46768;BME280;69007;48.978;18.066;2024-01-15T08:18:13;95936.56;;;-1.86;100.00
46768;BME280;69007;48.978;18.066;2024-01-15T08:20:38;95938.06;;;-1.90;100.00
46768;BME280;69007;48.978;18.066;2024-01-15T08:23:04;95918.94;;;-1.87;100.00
46768;BME280;69007;48.978;18.066;2024-01-15T08:25:29;95903.28;;;-1.83;100.00
46768;BME280;69007;48.978;18.066;2024-01-15T08:27:56;95927.81;;;-1.63;100.00
46768;BME280;69007;48.978;18.066;2024-01-15T08:30:22;95941.72;;;-1.49;100.00
46768;BME280;69007;48.978;18.066;2024-01-15T08:32:51;95904.84;;;-1.40;99.54
46768;BME280;69007;48.978;18.066;2024-01-15T08:35:16;95926.22;;;-1.28;97.74
46768;BME280;69007;48.978;18.066;2024-01-15T08:37:42;95906.13;;;-1.31;97.42
46768;BME280;69007;48.978;18.066;2024-01-15T08:40:07;95904.38;;;-1.25;96.34
46768;BME280;69007;48.978;18.066;2024-01-15T08:42:33;95931.63;;;-1.00;95.63
46768;BME280;69007;48.978;18.066;2024-01-15T08:44:58;95909.50;;;-1.12;94.12
46768;BME280;69007;48.978;18.066;2024-01-15T08:47:23;95935.91;;;-0.87;94.44
46768;BME280;69007;48.978;18.066;2024-01-15T08:49:50;95934.38;;;-0.83;94.31
46768;BME280;69007;48.978;18.066;2024-01-15T08:52:16;95951.22;;;-0.70;93.62
46768;BME280;69007;48.978;18.066;2024-01-15T08:54:41;95956.44;;;-0.64;92.86
46768;BME280;69007;48.978;18.066;2024-01-15T08:57:07;95945.53;;;-0.62;89.64
46768;BME280;69007;48.978;18.066;2024-01-15T08:59:32;95927.66;;;-0.73;90.06
46768;BME280;69007;48.978;18.066;2024-01-15T09:01:57;95929.38;;;-0.67;88.22
46768;BME280;69007;48.978;18.066;2024-01-15T09:04:23;95951.28;;;-0.53;88.50
46768;BME280;69007;48.978;18.066;2024-01-15T09:06:49;95938.97;;;-0.43;87.67
46768;BME280;69007;48.978;18.066;2024-01-15T09:09:14;95930.84;;;-0.48;86.13
46768;BME280;69007;48.978;18.066;2024-01-15T09:11:40;95937.63;;;-0.28;85.57
46768;BME280;69007;48.978;18.066;2024-01-15T09:14:06;95938.53;;;-0.23;84.25
46768;BME280;69007;48.978;18.066;2024-01-15T09:16:31;95912.84;;;-0.24;85.79
46768;BME280;69007;48.978;18.066;2024-01-15T09:18:57;95927.72;;;-0.16;83.84
46768;BME280;69007;48.978;18.066;2024-01-15T09:21:23;95932.44;;;-0.06;84.64
46768;BME280;69007;48.978;18.066;2024-01-15T09:23:50;95930.97;;;0.03;84.00
46768;BME280;69007;48.978;18.066;2024-01-15T09:26:15;95897.22;;;-0.15;83.11
46768;BME280;69007;48.978;18.066;2024-01-15T09:28:40;95925.00;;;0.13;83.16
46768;BME280;69007;48.978;18.066;2024-01-15T09:31:06;95945.34;;;0.14;82.62
46768;BME280;69007;48.978;18.066;2024-01-15T09:33:31;95915.47;;;0.17;81.13
46768;BME280;69007;48.978;18.066;2024-01-15T09:35:56;95911.06;;;0.28;82.64
46768;BME280;69007;48.978;18.066;2024-01-15T09:38:22;95907.13;;;0.30;81.73
46768;BME280;69007;48.978;18.066;2024-01-15T09:40:49;95898.38;;;0.35;81.83
46768;BME280;69007;48.978;18.066;2024-01-15T09:43:16;95918.97;;;0.51;81.17
46768;BME280;69007;48.978;18.066;2024-01-15T09:45:42;95882.31;;;0.35;80.41
46768;BME280;69007;48.978;18.066;2024-01-15T09:48:08;95882.94;;;0.42;81.38
46768;BME280;69007;48.978;18.066;2024-01-15T09:50:34;95912.94;;;0.44;79.76
46768;BME280;69007;48.978;18.066;2024-01-15T09:53:00;95903.38;;;0.48;81.20
46768;BME280;69007;48.978;18.066;2024-01-15T09:55:26;95910.94;;;0.51;80.48
46768;BME280;69007;48.978;18.066;2024-01-15T09:57:52;95907.78;;;0.54;80.60
46768;BME280;69007;48.978;18.066;2024-01-15T10:00:18;95910.28;;;0.61;80.43
46768;BME280;69007;48.978;18.066;2024-01-15T10:02:44;95902.97;;;0.73;80.76
46768;BME280;69007;48.978;18.066;2024-01-15T10:05:10;95893.06;;;0.74;78.34
46768;BME280;69007;48.978;18.066;2024-01-15T10:07:36;95914.47;;;0.91;78.64
46768;BME280;69007;48.978;18.066;2024-01-15T10:10:02;95863.44;;;0.81;78.92
46768;BME280;69007;48.978;18.066;2024-01-15T10:12:28;95893.06;;;1.13;77.46
46768;BME280;69007;48.978;18.066;2024-01-15T10:14:56;95887.47;;;1.15;77.64
46768;BME280;69007;48.978;18.066;2024-01-15T10:17:21;95902.31;;;1.05;79.05
46768;BME280;69007;48.978;18.066;2024-01-15T10:19:46;95899.75;;;0.94;78.05
46768;BME280;69007;48.978;18.066;2024-01-15T10:22:14;95874.38;;;0.79;78.83
46768;BME280;69007;48.978;18.066;2024-01-15T10:24:41;95884.66;;;0.87;78.76
46768;BME280;69007;48.978;18.066;2024-01-15T10:27:10;95884.28;;;0.79;79.36
46768;BME280;69007;48.978;18.066;2024-01-15T10:29:36;95891.41;;;0.90;80.93
46768;BME280;69007;48.978;18.066;2024-01-15T10:32:03;95885.50;;;0.88;80.79
46768;BME280;69007;48.978;18.066;2024-01-15T10:34:30;95873.59;;;0.79;81.31
46768;BME280;69007;48.978;18.066;2024-01-15T10:36:55;95877.72;;;0.86;81.51
46768;BME280;69007;48.978;18.066;2024-01-15T10:39:22;95882.16;;;0.98;81.30
46768;BME280;69007;48.978;18.066;2024-01-15T10:41:47;95892.19;;;1.07;79.78
46768;BME280;69007;48.978;18.066;2024-01-15T10:44:13;95883.75;;;0.99;80.90
46768;BME280;69007;48.978;18.066;2024-01-15T10:46:38;95893.00;;;1.08;80.21
46768;BME280;69007;48.978;18.066;2024-01-15T10:49:04;95888.25;;;1.15;79.39
46768;BME280;69007;48.978;18.066;2024-01-15T10:51:30;95868.72;;;1.15;79.20
46768;BME280;69007;48.978;18.066;2024-01-15T10:53:56;95872.84;;;1.22;80.23
46768;BME280;69007;48.978;18.066;2024-01-15T10:56:22;95875.56;;;1.27;78.67
46768;BME280;69007;48.978;18.066;2024-01-15T10:58:50;95853.06;;;1.28;77.93
46768;BME280;69007;48.978;18.066;2024-01-15T11:01:16;95884.84;;;1.42;77.82
46768;BME280;69007;48.978;18.066;2024-01-15T11:03:43;95864.09;;;1.54;77.11
46768;BME280;69007;48.978;18.066;2024-01-15T11:06:19;95872.78;;;1.66;76.48
46768;BME280;69007;48.978;18.066;2024-01-15T11:08:51;95848.28;;;1.58;76.02
46768;BME280;69007;48.978;18.066;2024-01-15T11:11:18;95848.19;;;1.47;75.59
46768;BME280;69007;48.978;18.066;2024-01-15T11:13:46;95839.72;;;1.34;76.72
46768;BME280;69007;48.978;18.066;2024-01-15T11:16:14;95878.41;;;1.43;76.04
46768;BME280;69007;48.978;18.066;2024-01-15T11:21:26;95873.63;;;1.45;78.29
46768;BME280;69007;48.978;18.066;2024-01-15T11:23:59;95875.31;;;1.51;76.92
46768;BME280;69007;48.978;18.066;2024-01-15T11:26:38;95868.88;;;1.52;76.17
46768;BME280;69007;48.978;18.066;2024-01-15T11:29:28;95842.72;;;1.37;77.66
46768;BME280;69007;48.978;18.066;2024-01-15T11:32:09;95863.03;;;1.33;76.27
46768;BME280;69007;48.978;18.066;2024-01-15T11:34:54;95865.59;;;1.23;76.60
46768;BME280;69007;48.978;18.066;2024-01-15T11:37:24;95842.59;;;1.05;77.59
46768;BME280;69007;48.978;18.066;2024-01-15T11:39:54;95859.47;;;1.05;78.43
46768;BME280;69007;48.978;18.066;2024-01-15T11:42:20;95846.25;;;0.99;78.70
46768;BME280;69007;48.978;18.066;2024-01-15T11:44:46;95862.97;;;1.06;78.15
46768;BME280;69007;48.978;18.066;2024-01-15T11:47:12;95828.59;;;0.98;78.54
46768;BME280;69007;48.978;18.066;2024-01-15T11:52:38;95846.66;;;1.29;77.83
46768;BME280;69007;48.978;18.066;2024-01-15T11:57:46;95844.72;;;1.25;76.74
46768;BME280;69007;48.978;18.066;2024-01-15T12:00:13;95845.59;;;1.08;78.58
46768;BME280;69007;48.978;18.066;2024-01-15T12:02:43;95825.03;;;0.92;77.92
46768;BME280;69007;48.978;18.066;2024-01-15T12:05:13;95838.81;;;1.01;78.59
46768;BME280;69007;48.978;18.066;2024-01-15T12:07:46;95853.50;;;0.98;78.35
46768;BME280;69007;48.978;18.066;2024-01-15T12:10:22;95842.91;;;0.86;79.21
46768;BME280;69007;48.978;18.066;2024-01-15T12:15:20;95834.97;;;0.75;79.51
46768;BME280;69007;48.978;18.066;2024-01-15T12:17:46;95837.72;;;0.80;80.04
46768;BME280;69007;48.978;18.066;2024-01-15T12:20:13;95845.34;;;0.88;79.90
46768;BME280;69007;48.978;18.066;2024-01-15T12:22:39;95835.59;;;0.82;79.11
46768;BME280;69007;48.978;18.066;2024-01-15T12:25:05;95816.88;;;0.82;79.87
46768;BME280;69007;48.978;18.066;2024-01-15T12:27:30;95824.97;;;0.87;79.78
46768;BME280;69007;48.978;18.066;2024-01-15T12:29:58;95800.84;;;0.87;79.38
46768;BME280;69007;48.978;18.066;2024-01-15T12:32:24;95775.84;;;0.76;80.30
46768;BME280;69007;48.978;18.066;2024-01-15T12:34:50;95792.63;;;0.94;80.12
46768;BME280;69007;48.978;18.066;2024-01-15T12:37:20;95794.63;;;1.03;80.29
46768;BME280;69007;48.978;18.066;2024-01-15T12:39:46;95768.00;;;1.19;79.22
46768;BME280;69007;48.978;18.066;2024-01-15T12:42:11;95786.66;;;1.31;78.84
46768;BME280;69007;48.978;18.066;2024-01-15T12:44:39;95778.97;;;1.39;78.53
46768;BME280;69007;48.978;18.066;2024-01-15T12:47:05;95788.63;;;1.40;78.48
46768;BME280;69007;48.978;18.066;2024-01-15T12:49:30;95773.84;;;1.38;78.60
46768;BME280;69007;48.978;18.066;2024-01-15T12:51:57;95768.34;;;1.22;78.71